Time,TemperatureF,DewpointF,PressureIn,WindDirection,WindDirectionDegrees,WindSpeedMPH,WindSpeedGustMPH,Humidity,HourlyPrecipIn,Conditions,Clouds,dailyrainin,SolarRadiationWatts/m^2,SoftwareType,DateUTC
2013-06-02 00:01:00,63.0,36.0,-100.00,NNE,31,3.0,9.0,37,0.00,,,0.00,17.000000,,2013-06-02 08:01:00,
2013-06-02 00:11:00,63.0,36.0,-100.00,NNE,31,3.0,9.0,37,0.00,,,0.00,17.000000,,2013-06-02 08:11:00,
2013-06-02 00:32:00,60.0,37.0,-100.00,NNE,24,2.0,8.0,43,0.00,,,0.00,7.000000,,2013-06-02 08:32:00,
2013-06-02 00:42:00,60.0,37.0,-100.00,NNE,24,2.0,8.0,43,0.00,,,0.00,7.000000,,2013-06-02 08:42:00,
2013-06-02 00:52:00,60.0,37.0,-100.00,NNE,24,2.0,8.0,43,0.00,,,0.00,7.000000,,2013-06-02 08:52:00,
2013-06-02 01:01:00,60.0,37.0,-100.00,NNE,24,2.0,8.0,43,0.00,,,0.00,7.000000,,2013-06-02 09:01:00,
2013-06-02 01:11:00,60.0,37.0,-100.00,NNE,24,2.0,8.0,43,0.00,,,0.00,7.000000,,2013-06-02 09:11:00,
2013-06-02 01:33:00,59.0,39.0,-100.00,NNE,32,3.0,8.0,47,0.00,,,0.00,2.000000,,2013-06-02 09:33:00,
2013-06-02 01:43:00,59.0,39.0,-100.00,NNE,32,3.0,8.0,47,0.00,,,0.00,2.000000,,2013-06-02 09:43:00,
2013-06-02 01:53:00,59.0,39.0,-100.00,NNE,32,3.0,8.0,47,0.00,,,0.00,2.000000,,2013-06-02 09:53:00,
2013-06-02 02:02:00,59.0,39.0,-100.00,NNE,32,3.0,8.0,47,0.00,,,0.00,2.000000,,2013-06-02 10:02:00,
2013-06-02 02:12:00,59.0,39.0,-100.00,NNE,32,3.0,8.0,47,0.00,,,0.00,2.000000,,2013-06-02 10:12:00,
2013-06-02 02:33:00,49.0,36.0,-100.00,SE,125,0.0,6.0,60,0.00,,,0.00,0.000000,,2013-06-02 10:33:00,
2013-06-02 03:32:00,43.0,37.0,-100.00,SW,216,0.0,2.0,78,0.00,,,0.00,2.000000,,2013-06-02 11:32:00,
2013-06-02 04:32:00,39.0,37.0,-100.00,WNW,302,0.0,1.0,92,-99.99,,,0.00,7.000000,,2013-06-02 12:32:00,
2013-06-02 05:42:00,38.0,36.0,-100.00,ENE,74,0.0,1.0,92,-99.99,,,0.00,19.000000,,2013-06-02 13:42:00,
2013-06-02 05:52:00,38.0,36.0,-100.00,ENE,74,0.0,1.0,92,-99.99,,,0.00,19.000000,,2013-06-02 13:52:00,
2013-06-02 06:32:00,50.0,43.0,-100.00,NNE,26,0.0,2.0,77,-99.99,,,0.00,110.000000,,2013-06-02 14:32:00,
2013-06-02 06:42:00,50.0,43.0,-100.00,NNE,26,0.0,2.0,77,-99.99,,,0.00,110.000000,,2013-06-02 14:42:00,
2013-06-02 06:52:00,50.0,43.0,-100.00,NNE,26,0.0,2.0,77,-99.99,,,0.00,110.000000,,2013-06-02 14:52:00,
2013-06-02 07:01:00,50.0,43.0,-100.00,NNE,26,0.0,2.0,77,-99.99,,,0.00,110.000000,,2013-06-02 15:01:00,
2013-06-02 07:11:00,50.0,43.0,-100.00,NNE,26,0.0,2.0,77,-99.99,,,0.00,110.000000,,2013-06-02 15:11:00,
2013-06-02 07:33:00,59.0,47.0,-100.00,WNW,295,0.0,3.0,64,0.00,,,0.00,199.000000,,2013-06-02 15:33:00,
2013-06-02 07:43:00,59.0,47.0,-100.00,WNW,295,0.0,3.0,64,0.00,,,0.00,199.000000,,2013-06-02 15:43:00,
2013-06-02 07:53:00,59.0,47.0,-100.00,WNW,295,0.0,3.0,64,0.00,,,0.00,199.000000,,2013-06-02 15:53:00,
2013-06-02 08:03:00,59.0,47.0,-100.00,WNW,295,0.0,3.0,64,0.00,,,0.00,199.000000,,2013-06-02 16:03:00,
2013-06-02 08:13:00,59.0,47.0,-100.00,WNW,295,0.0,3.0,64,0.00,,,0.00,199.000000,,2013-06-02 16:13:00,
2013-06-02 08:33:00,65.0,45.0,-100.00,NNE,20,0.0,2.0,49,0.00,,,0.00,334.000000,,2013-06-02 16:33:00,
2013-06-02 08:42:00,65.0,45.0,-100.00,NNE,20,0.0,2.0,49,0.00,,,0.00,334.000000,,2013-06-02 16:42:00,
2013-06-02 08:52:00,65.0,45.0,-100.00,NNE,20,0.0,2.0,49,0.00,,,0.00,334.000000,,2013-06-02 16:52:00,
2013-06-02 09:02:00,65.0,45.0,-100.00,NNE,20,0.0,2.0,49,0.00,,,0.00,334.000000,,2013-06-02 17:02:00,
2013-06-02 09:12:00,65.0,45.0,-100.00,NNE,20,0.0,2.0,49,0.00,,,0.00,334.000000,,2013-06-02 17:12:00,
2013-06-02 09:32:00,71.0,46.0,-100.00,ENE,74,2.0,5.0,41,0.00,,,0.00,465.000000,,2013-06-02 17:32:00,
2013-06-02 09:52:00,71.0,46.0,-100.00,ENE,74,2.0,5.0,41,0.00,,,0.00,465.000000,,2013-06-02 17:52:00,
2013-06-02 10:01:00,71.0,46.0,-100.00,ENE,74,2.0,5.0,41,0.00,,,0.00,465.000000,,2013-06-02 18:01:00,
2013-06-02 10:11:00,71.0,46.0,-100.00,ENE,74,2.0,5.0,41,0.00,,,0.00,465.000000,,2013-06-02 18:11:00,
2013-06-02 10:32:00,73.0,44.0,-100.00,ENE,57,2.0,7.0,36,0.00,,,0.00,441.000000,,2013-06-02 18:32:00,
2013-06-02 10:42:00,73.0,44.0,-100.00,ENE,57,2.0,7.0,36,0.00,,,0.00,441.000000,,2013-06-02 18:42:00,
2013-06-02 10:52:00,73.0,44.0,-100.00,ENE,57,2.0,7.0,36,0.00,,,0.00,441.000000,,2013-06-02 18:52:00,
2013-06-02 11:01:00,73.0,44.0,-100.00,ENE,57,2.0,7.0,36,0.00,,,0.00,441.000000,,2013-06-02 19:01:00,
2013-06-02 11:11:00,73.0,44.0,-100.00,ENE,57,2.0,7.0,36,0.00,,,0.00,441.000000,,2013-06-02 19:11:00,
2013-06-02 11:32:00,77.0,42.0,-100.00,West,265,2.0,6.0,29,0.00,,,0.00,707.000000,,2013-06-02 19:32:00,
2013-06-02 11:42:00,77.0,42.0,-100.00,West,265,2.0,6.0,29,0.00,,,0.00,707.000000,,2013-06-02 19:42:00,
2013-06-02 11:52:00,77.0,42.0,-100.00,West,265,2.0,6.0,29,0.00,,,0.00,707.000000,,2013-06-02 19:52:00,
2013-06-02 12:02:00,77.0,42.0,-100.00,West,265,2.0,6.0,29,0.00,,,0.00,707.000000,,2013-06-02 20:02:00,
2013-06-02 12:11:00,77.0,42.0,-100.00,West,265,2.0,6.0,29,0.00,,,0.00,707.000000,,2013-06-02 20:11:00,
2013-06-02 12:32:00,79.0,43.0,-100.00,SW,219,2.0,7.0,28,0.00,,,0.00,779.000000,,2013-06-02 20:32:00,
2013-06-02 12:42:00,79.0,43.0,-100.00,SW,219,2.0,7.0,28,0.00,,,0.00,779.000000,,2013-06-02 20:42:00,
2013-06-02 12:52:00,79.0,43.0,-100.00,SW,219,2.0,7.0,28,0.00,,,0.00,779.000000,,2013-06-02 20:52:00,
2013-06-02 13:01:00,79.0,43.0,-100.00,SW,219,2.0,7.0,28,0.00,,,0.00,779.000000,,2013-06-02 21:01:00,
2013-06-02 13:11:00,79.0,43.0,-100.00,SW,219,2.0,7.0,28,0.00,,,0.00,779.000000,,2013-06-02 21:11:00,
2013-06-02 13:33:00,81.0,42.0,-100.00,SSW,201,1.0,8.0,25,0.00,,,0.00,839.000000,,2013-06-02 21:33:00,
2013-06-02 13:42:00,81.0,42.0,-100.00,SSW,201,1.0,8.0,25,0.00,,,0.00,839.000000,,2013-06-02 21:42:00,
2013-06-02 13:53:00,81.0,42.0,-100.00,SSW,201,1.0,8.0,25,0.00,,,0.00,839.000000,,2013-06-02 21:53:00,
2013-06-02 14:03:00,81.0,42.0,-100.00,SSW,201,1.0,8.0,25,0.00,,,0.00,839.000000,,2013-06-02 22:03:00,
2013-06-02 14:12:00,81.0,42.0,-100.00,SSW,201,1.0,8.0,25,0.00,,,0.00,839.000000,,2013-06-02 22:12:00,
2013-06-02 14:33:00,83.0,41.0,-100.00,South,181,2.0,7.0,23,0.00,,,0.00,896.000000,,2013-06-02 22:33:00,
2013-06-02 14:42:00,83.0,41.0,-100.00,South,181,2.0,7.0,23,0.00,,,0.00,896.000000,,2013-06-02 22:42:00,
2013-06-02 14:52:00,83.0,41.0,-100.00,South,181,2.0,7.0,23,0.00,,,0.00,896.000000,,2013-06-02 22:52:00,
2013-06-02 15:02:00,83.0,41.0,-100.00,South,181,2.0,7.0,23,0.00,,,0.00,896.000000,,2013-06-02 23:02:00,
2013-06-02 15:12:00,83.0,41.0,-100.00,South,181,2.0,7.0,23,0.00,,,0.00,896.000000,,2013-06-02 23:12:00,
2013-06-02 15:32:00,82.0,37.0,-100.00,WSW,245,2.0,8.0,20,0.00,,,0.00,809.000000,,2013-06-02 23:32:00,
2013-06-02 15:42:00,82.0,37.0,-100.00,WSW,245,2.0,8.0,20,0.00,,,0.00,809.000000,,2013-06-02 23:42:00,
2013-06-02 15:52:00,82.0,37.0,-100.00,WSW,245,2.0,8.0,20,0.00,,,0.00,809.000000,,2013-06-02 23:52:00,
2013-06-02 16:01:00,82.0,37.0,-100.00,WSW,245,2.0,8.0,20,0.00,,,0.00,809.000000,,2013-06-03 00:01:00,
2013-06-02 16:11:00,82.0,37.0,-100.00,WSW,245,2.0,8.0,20,0.00,,,0.00,809.000000,,2013-06-03 00:11:00,
2013-06-02 17:32:00,83.0,42.0,-100.00,SSW,212,2.0,8.0,24,-99.99,,,0.00,706.000000,,2013-06-03 01:32:00,
2013-06-02 17:42:00,83.0,42.0,-100.00,SSW,212,2.0,8.0,24,-99.99,,,0.00,706.000000,,2013-06-03 01:42:00,
2013-06-02 17:52:00,83.0,42.0,-100.00,SSW,212,2.0,8.0,24,-99.99,,,0.00,706.000000,,2013-06-03 01:52:00,
2013-06-02 18:02:00,83.0,42.0,-100.00,SSW,212,2.0,8.0,24,-99.99,,,0.00,706.000000,,2013-06-03 02:02:00,
2013-06-02 18:12:00,83.0,42.0,-100.00,SSW,212,2.0,8.0,24,-99.99,,,0.00,706.000000,,2013-06-03 02:12:00,
2013-06-02 18:32:00,83.0,40.0,-100.00,West,280,3.0,7.0,22,0.00,,,0.00,615.000000,,2013-06-03 02:32:00,
2013-06-02 18:42:00,83.0,40.0,-100.00,West,280,3.0,7.0,22,0.00,,,0.00,615.000000,,2013-06-03 02:42:00,
2013-06-02 18:52:00,83.0,40.0,-100.00,West,280,3.0,7.0,22,0.00,,,0.00,615.000000,,2013-06-03 02:52:00,
2013-06-02 19:02:00,83.0,40.0,-100.00,West,280,3.0,7.0,22,0.00,,,0.00,615.000000,,2013-06-03 03:02:00,
2013-06-02 19:12:00,83.0,40.0,-100.00,West,280,3.0,7.0,22,0.00,,,0.00,615.000000,,2013-06-03 03:12:00,
2013-06-02 19:33:00,80.0,38.0,-100.00,WNW,285,3.0,10.0,22,0.00,,,0.00,472.000000,,2013-06-03 03:33:00,
2013-06-02 19:43:00,80.0,38.0,-100.00,WNW,285,3.0,10.0,22,0.00,,,0.00,472.000000,,2013-06-03 03:43:00,
2013-06-02 19:53:00,80.0,38.0,-100.00,WNW,285,3.0,10.0,22,0.00,,,0.00,472.000000,,2013-06-03 03:53:00,
2013-06-02 20:02:00,80.0,38.0,-100.00,WNW,285,3.0,10.0,22,0.00,,,0.00,472.000000,,2013-06-03 04:02:00,
2013-06-02 20:12:00,80.0,38.0,-100.00,WNW,285,3.0,10.0,22,0.00,,,0.00,472.000000,,2013-06-03 04:12:00,
2013-06-02 20:33:00,76.0,38.0,-100.00,West,281,2.0,7.0,25,0.00,,,0.00,207.000000,,2013-06-03 04:33:00,
2013-06-02 20:42:00,76.0,38.0,-100.00,West,281,2.0,7.0,25,0.00,,,0.00,207.000000,,2013-06-03 04:42:00,
2013-06-02 20:53:00,76.0,38.0,-100.00,West,281,2.0,7.0,25,0.00,,,0.00,207.000000,,2013-06-03 04:53:00,
2013-06-02 21:02:00,76.0,38.0,-100.00,West,281,2.0,7.0,25,0.00,,,0.00,207.000000,,2013-06-03 05:02:00,
2013-06-02 21:12:00,76.0,38.0,-100.00,West,281,2.0,7.0,25,0.00,,,0.00,207.000000,,2013-06-03 05:12:00,
2013-06-02 21:32:00,73.0,36.0,-100.00,WNW,283,2.0,8.0,26,0.00,,,0.00,128.000000,,2013-06-03 05:32:00,
2013-06-02 21:43:00,73.0,36.0,-100.00,WNW,283,2.0,8.0,26,0.00,,,0.00,128.000000,,2013-06-03 05:43:00,
2013-06-02 21:52:00,73.0,36.0,-100.00,WNW,283,2.0,8.0,26,0.00,,,0.00,128.000000,,2013-06-03 05:52:00,
2013-06-02 22:02:00,73.0,36.0,-100.00,WNW,283,2.0,8.0,26,0.00,,,0.00,128.000000,,2013-06-03 06:02:00,
2013-06-02 22:12:00,73.0,36.0,-100.00,WNW,283,2.0,8.0,26,0.00,,,0.00,128.000000,,2013-06-03 06:12:00,
2013-06-02 22:32:00,67.0,34.0,-100.00,West,260,1.0,8.0,29,0.00,,,0.00,53.000000,,2013-06-03 06:32:00,
2013-06-02 22:42:00,67.0,34.0,-100.00,West,260,1.0,8.0,29,0.00,,,0.00,53.000000,,2013-06-03 06:42:00,
2013-06-02 22:52:00,67.0,34.0,-100.00,West,260,1.0,8.0,29,0.00,,,0.00,53.000000,,2013-06-03 06:52:00,
2013-06-02 23:02:00,67.0,34.0,-100.00,West,260,1.0,8.0,29,0.00,,,0.00,53.000000,,2013-06-03 07:02:00,
2013-06-02 23:12:00,67.0,34.0,-100.00,West,260,1.0,8.0,29,0.00,,,0.00,53.000000,,2013-06-03 07:12:00,
2013-06-02 23:32:00,62.0,44.0,-100.00,WSW,239,2.0,11.0,51,0.00,,,-99.99,13.000000,,2013-06-03 07:32:00,
2013-06-02 23:42:00,62.0,44.0,-100.00,WSW,239,2.0,11.0,51,0.00,,,-99.99,13.000000,,2013-06-03 07:42:00,
2013-06-02 23:52:00,62.0,44.0,-100.00,WSW,239,2.0,11.0,51,0.00,,,-99.99,13.000000,,2013-06-03 07:52:00,